Time;durP1;ratioP1;P1;durP2;ratioP2;P2;SDS_P1;SDS_P2;PMS_P1;PMS_P2;Temp;Humidity;BMP_temperature;BMP_pressure;BME280_temperature;BME280_humidity;BME280_pressure;Samples;Min_cycle;Max_cycle;Signal;HPM_P1;HPM_P2
2022/08/02 00:01:37;;;;;;;3.15;1.05;;;13.50;99.90;;;;;;5049477;28;20052;-88
2022/08/02 00:04:03;;;;;;;2.83;0.52;;;13.50;99.90;;;;;;5051465;28;20021;-88
2022/08/02 00:06:29;;;;;;;3.45;0.55;;;13.50;99.90;;;;;;5054513;28;20032;-86
2022/08/02 00:08:54;;;;;;;3.13;0.70;;;13.50;99.90;;;;;;5054167;28;20075;-86
2022/08/02 00:11:20;;;;;;;2.30;0.63;;;13.60;99.90;;;;;;5054298;28;20477;-86
2022/08/02 00:13:45;;;;;;;1.95;0.50;;;13.60;99.90;;;;;;5053777;28;20021;-86
2022/08/02 00:16:11;;;;;;;4.30;0.50;;;13.60;99.90;;;;;;5052664;28;20435;-87
2022/08/02 00:18:37;;;;;;;1.98;0.50;;;13.50;99.90;;;;;;5053757;28;20029;-87
2022/08/02 00:21:03;;;;;;;2.58;0.43;;;13.60;99.90;;;;;;5050552;28;20041;-87
2022/08/02 00:23:28;;;;;;;2.55;0.50;;;13.60;99.90;;;;;;5049822;28;20120;-86
2022/08/02 00:25:54;;;;;;;4.70;0.60;;;13.50;99.90;;;;;;5052884;28;20413;-86
2022/08/02 00:28:19;;;;;;;2.22;0.50;;;13.50;99.90;;;;;;5051775;28;20094;-86
2022/08/02 00:30:45;;;;;;;3.80;0.40;;;13.60;99.90;;;;;;5050699;28;20093;-87
2022/08/02 00:33:10;;;;;;;1.52;0.40;;;13.50;99.90;;;;;;5053314;28;20029;-86
2022/08/02 00:35:36;;;;;;;2.72;0.70;;;13.50;99.90;;;;;;5051437;28;20064;-86
2022/08/02 00:38:02;;;;;;;6.47;1.95;;;13.50;99.90;;;;;;5051767;28;20025;-87
2022/08/02 00:40:29;;;;;;;8.73;0.73;;;13.50;99.90;;;;;;5046015;28;20037;-87
2022/08/02 00:43:08;;;;;;;2.72;0.50;;;13.50;99.90;;;;;;5050940;28;20051;-87
2022/08/02 00:45:35;;;;;;;2.22;0.50;;;13.40;99.90;;;;;;5052051;28;20112;-87
2022/08/02 00:48:02;;;;;;;2.55;0.70;;;13.40;99.90;;;;;;5049135;28;20067;-86
2022/08/02 00:50:28;;;;;;;3.75;0.70;;;13.40;99.90;;;;;;5051670;28;20021;-87
2022/08/02 00:52:54;;;;;;;2.70;0.60;;;13.30;99.90;;;;;;5059563;28;20124;-87
2022/08/02 00:55:20;;;;;;;2.38;0.65;;;13.40;99.90;;;;;;5056518;28;20056;-86
2022/08/02 00:57:46;;;;;;;2.58;0.57;;;13.40;99.90;;;;;;5049750;28;20032;-88
2022/08/02 01:00:12;;;;;;;4.72;0.50;;;13.40;99.90;;;;;;5052600;28;21018;-86
2022/08/02 01:02:38;;;;;;;1.83;0.80;;;13.40;99.90;;;;;;5052749;28;20031;-86
2022/08/02 01:05:04;;;;;;;1.70;0.40;;;13.40;99.90;;;;;;5050741;28;20060;-86
2022/08/02 01:07:30;;;;;;;3.63;0.77;;;13.40;99.90;;;;;;5052744;28;20052;-86
2022/08/02 01:09:56;;;;;;;3.17;0.60;;;13.40;99.90;;;;;;5052576;28;20507;-86
2022/08/02 01:12:21;;;;;;;4.05;0.57;;;13.30;99.90;;;;;;5052715;28;20040;-86
2022/08/02 01:14:50;;;;;;;3.08;0.40;;;13.30;99.90;;;;;;5049563;28;20026;-86
2022/08/02 01:17:22;;;;;;;2.17;0.40;;;13.30;99.90;;;;;;5059796;28;20400;-86
2022/08/02 01:20:10;;;;;;;6.75;0.68;;;13.20;99.90;;;;;;5052098;28;20032;-85
2022/08/02 01:23:03;;;;;;;3.47;0.40;;;13.20;99.90;;;;;;5052983;28;20021;-86
2022/08/02 01:25:38;;;;;;;3.25;0.57;;;13.20;99.90;;;;;;5053838;28;20370;-86
2022/08/02 01:28:31;;;;;;;4.13;1.10;;;13.20;99.90;;;;;;5048195;28;20029;-87
2022/08/02 01:31:22;;;;;;;3.58;0.47;;;13.20;99.90;;;;;;5051991;28;20775;-87
2022/08/02 01:34:03;;;;;;;4.55;0.43;;;13.10;99.90;;;;;;5049360;28;20374;-87
2022/08/02 01:36:35;;;;;;;3.28;0.50;;;13.10;99.90;;;;;;5049777;28;20033;-87
2022/08/02 01:39:04;;;;;;;4.10;0.52;;;13.10;99.90;;;;;;5043468;28;20110;-88
2022/08/02 01:41:31;;;;;;;3.83;0.40;;;13.10;99.90;;;;;;5049262;28;20037;-86
2022/08/02 01:43:59;;;;;;;4.60;0.60;;;13.10;99.90;;;;;;5054536;28;20385;-88
2022/08/02 01:46:27;;;;;;;4.15;0.47;;;13.10;99.90;;;;;;5049314;28;20057;-87
2022/08/02 01:48:55;;;;;;;3.55;0.80;;;13.10;99.90;;;;;;5048749;28;20044;-87
2022/08/02 01:54:10;;;;;;;3.60;0.70;;;13.10;99.90;;;;;;5048532;28;20507;-87
2022/08/02 01:56:37;;;;;;;4.65;0.50;;;13.00;99.90;;;;;;5051051;28;20021;-87
2022/08/02 01:59:07;;;;;;;3.63;0.73;;;12.90;99.90;;;;;;5047114;28;20115;-88
2022/08/02 02:01:35;;;;;;;1.92;0.68;;;12.90;99.90;;;;;;5052031;28;20037;-87
2022/08/02 02:04:02;;;;;;;2.67;0.50;;;12.90;99.90;;;;;;5050710;28;20021;-88
2022/08/02 02:06:28;;;;;;;2.70;0.40;;;12.90;99.90;;;;;;5046968;28;20030;-87
2022/08/02 02:08:55;;;;;;;3.55;0.50;;;12.90;99.90;;;;;;5049278;28;20078;-87
2022/08/02 02:11:21;;;;;;;3.28;0.47;;;12.90;99.90;;;;;;5050710;28;20032;-87
2022/08/02 02:13:48;;;;;;;4.60;0.65;;;12.90;99.90;;;;;;5049860;28;20053;-87
2022/08/02 02:16:15;;;;;;;2.30;0.50;;;12.90;99.90;;;;;;5049044;28;20090;-87
2022/08/02 02:18:43;;;;;;;4.18;0.55;;;12.90;99.90;;;;;;5046911;28;20047;-87
2022/08/02 02:21:10;;;;;;;3.25;0.73;;;12.90;99.90;;;;;;5048840;28;20060;-88
2022/08/02 02:23:36;;;;;;;5.68;0.68;;;12.80;99.90;;;;;;5046589;28;20083;-87
2022/08/02 02:26:03;;;;;;;3.10;0.52;;;12.80;99.90;;;;;;5050869;28;20029;-87
2022/08/02 02:28:31;;;;;;;7.90;1.85;;;12.80;99.90;;;;;;5049729;28;20075;-87
2022/08/02 02:31:02;;;;;;;4.95;0.63;;;12.80;99.90;;;;;;5050546;28;20029;-87
2022/08/02 02:33:30;;;;;;;3.70;0.40;;;12.80;99.90;;;;;;5051603;28;20017;-86
2022/08/02 02:35:57;;;;;;;3.47;0.47;;;12.80;99.90;;;;;;5039903;28;20025;-87
2022/08/02 02:38:26;;;;;;;4.22;0.50;;;12.80;99.90;;;;;;5051220;28;20025;-86
2022/08/02 02:40:52;;;;;;;5.53;0.73;;;12.90;99.90;;;;;;5046921;28;20539;-86
2022/08/02 02:43:19;;;;;;;2.90;0.57;;;12.90;99.90;;;;;;5051073;28;20029;-86
2022/08/02 02:45:45;;;;;;;2.85;0.40;;;13.00;99.90;;;;;;5048230;28;20021;-87
2022/08/02 02:48:13;;;;;;;3.92;0.60;;;13.00;99.90;;;;;;5035736;28;20042;-87
2022/08/02 02:50:41;;;;;;;3.00;0.50;;;12.90;99.90;;;;;;5049421;28;20021;-87
2022/08/02 02:53:09;;;;;;;3.42;0.60;;;12.90;99.90;;;;;;5049332;28;20033;-87
2022/08/02 02:55:34;;;;;;;3.67;0.57;;;12.90;99.90;;;;;;5049563;28;20143;-86
2022/08/02 02:58:01;;;;;;;2.80;0.50;;;12.90;99.90;;;;;;5043362;28;20107;-87
2022/08/02 03:03:12;;;;;;;5.25;0.70;;;12.90;99.90;;;;;;5051325;28;20028;-87
2022/08/02 03:05:38;;;;;;;2.95;0.50;;;12.80;99.90;;;;;;5047076;28;20492;-87
2022/08/02 03:08:04;;;;;;;4.20;0.65;;;12.80;99.90;;;;;;5051107;28;20036;-86
2022/08/02 03:10:30;;;;;;;3.47;0.80;;;12.80;99.90;;;;;;5051385;28;20032;-87
2022/08/02 03:12:57;;;;;;;3.15;0.80;;;12.80;99.90;;;;;;5049704;28;20512;-86
2022/08/02 03:15:26;;;;;;;3.88;0.55;;;12.80;99.90;;;;;;5048821;28;20079;-87
2022/08/02 03:17:52;;;;;;;3.47;0.70;;;12.70;99.90;;;;;;5050853;28;20021;-87
2022/08/02 03:20:19;;;;;;;3.22;0.50;;;12.70;99.90;;;;;;5052426;28;20527;-87
2022/08/02 03:22:45;;;;;;;4.95;0.80;;;12.70;99.90;;;;;;5051416;28;20033;-87
2022/08/02 03:25:13;;;;;;;6.75;0.70;;;12.70;99.90;;;;;;5050463;28;20035;-87
2022/08/02 03:27:39;;;;;;;3.33;0.80;;;12.70;99.90;;;;;;5049640;28;20115;-87
2022/08/02 03:30:07;;;;;;;4.80;0.73;;;12.60;99.90;;;;;;5050707;28;20025;-87
2022/08/02 03:32:37;;;;;;;2.60;0.50;;;12.60;99.90;;;;;;5035915;28;20546;-87
2022/08/02 03:35:05;;;;;;;4.63;0.90;;;12.60;99.90;;;;;;5051577;28;20361;-87
2022/08/02 03:37:32;;;;;;;3.35;0.80;;;12.70;99.90;;;;;;5054780;28;20040;-87
2022/08/02 03:39:59;;;;;;;5.75;0.77;;;12.60;99.90;;;;;;5051229;28;20074;-87
2022/08/02 03:42:26;;;;;;;6.47;0.90;;;12.70;99.90;;;;;;5036903;28;20102;-87
2022/08/02 03:44:54;;;;;;;3.55;0.70;;;12.70;99.90;;;;;;5044176;28;20017;-87
2022/08/02 03:47:21;;;;;;;4.38;0.82;;;12.80;99.90;;;;;;5053972;28;20103;-87
2022/08/02 03:49:46;;;;;;;4.22;0.90;;;12.80;99.90;;;;;;5054316;28;20123;-87
2022/08/02 03:52:13;;;;;;;2.20;0.90;;;12.90;99.90;;;;;;5051490;28;20489;-88
2022/08/02 03:54:38;;;;;;;5.97;1.23;;;13.00;99.90;;;;;;5050469;28;20042;-87
2022/08/02 03:57:08;;;;;;;2.25;0.85;;;13.00;99.90;;;;;;5054992;28;20029;-86
2022/08/02 03:59:42;;;;;;;4.22;0.98;;;13.10;99.90;;;;;;5052484;28;20025;-86
2022/08/02 04:02:08;;;;;;;2.85;0.73;;;13.20;99.90;;;;;;5052927;28;20076;-87
2022/08/02 04:04:34;;;;;;;2.75;0.70;;;13.20;99.90;;;;;;5052905;28;20040;-88
2022/08/02 04:07:00;;;;;;;3.08;0.70;;;13.30;99.90;;;;;;5052052;28;20033;-87
2022/08/02 04:09:26;;;;;;;3.08;1.00;;;13.40;99.90;;;;;;5051842;28;20056;-88
2022/08/02 04:11:51;;;;;;;6.82;1.73;;;13.50;99.90;;;;;;5052850;28;20036;-88
2022/08/02 04:14:17;;;;;;;3.70;1.10;;;13.60;99.90;;;;;;5053208;28;20029;-87
2022/08/02 04:16:47;;;;;;;3.65;1.10;;;13.60;99.90;;;;;;5054926;28;20028;-86
2022/08/02 04:19:26;;;;;;;6.00;1.52;;;13.70;99.90;;;;;;5055656;28;20025;-87
2022/08/02 04:21:54;;;;;;;4.82;1.05;;;13.70;99.90;;;;;;5056430;28;20463;-87
2022/08/02 04:24:25;;;;;;;5.07;1.20;;;13.80;99.90;;;;;;5054604;28;20024;-87
2022/08/02 04:26:54;;;;;;;5.72;1.40;;;13.80;99.90;;;;;;5055645;28;20029;-87
2022/08/02 04:29:20;;;;;;;5.05;1.30;;;13.90;99.90;;;;;;5056239;28;20120;-87
2022/08/02 04:31:47;;;;;;;4.88;1.42;;;13.90;99.90;;;;;;5056630;28;20106;-87
2022/08/02 04:34:12;;;;;;;6.50;1.55;;;14.00;99.90;;;;;;5052432;28;20120;-87
2022/08/02 04:36:39;;;;;;;3.85;1.60;;;14.10;99.90;;;;;;5047951;28;20152;-86
2022/08/02 04:39:04;;;;;;;4.65;1.40;;;14.20;99.90;;;;;;5052278;28;20033;-87
2022/08/02 04:41:37;;;;;;;10.77;1.80;;;14.20;99.90;;;;;;5063169;28;20037;-87
2022/08/02 04:44:02;;;;;;;;;;;14.30;99.90;;;;;;5051363;28;20033;-86
2022/08/02 04:46:28;;;;;;;6.57;1.75;;;14.30;99.90;;;;;;5052298;28;19917;-87
2022/08/02 04:48:54;;;;;;;5.35;2.05;;;14.30;99.90;;;;;;5047138;28;20039;-86
2022/08/02 04:51:19;;;;;;;8.38;2.03;;;14.30;99.90;;;;;;5054769;28;20033;-86
2022/08/02 04:53:45;;;;;;;5.80;1.50;;;14.30;99.90;;;;;;5052256;28;20030;-87
2022/08/02 04:56:10;;;;;;;6.22;2.03;;;14.30;99.90;;;;;;5042953;28;20036;-87
2022/08/02 04:58:36;;;;;;;8.00;1.52;;;14.40;99.90;;;;;;5055415;28;20473;-86
2022/08/02 05:01:01;;;;;;;7.15;1.52;;;14.40;99.90;;;;;;5055297;28;20041;-86
2022/08/02 05:03:27;;;;;;;4.95;1.70;;;14.40;99.90;;;;;;5051375;28;20025;-87
2022/08/02 05:05:53;;;;;;;5.75;1.65;;;14.40;99.90;;;;;;5054868;28;20033;-87
2022/08/02 05:08:18;;;;;;;7.07;1.40;;;14.50;99.90;;;;;;5051574;28;20017;-88
2022/08/02 05:10:44;;;;;;;7.38;2.13;;;14.60;99.90;;;;;;5052072;28;20032;-86
2022/08/02 05:13:09;;;;;;;4.00;1.63;;;14.60;99.90;;;;;;5049112;28;20029;-87
2022/08/02 05:15:35;;;;;;;9.88;2.30;;;14.70;99.90;;;;;;5045510;28;20032;-87
2022/08/02 05:18:00;;;;;;;5.93;2.17;;;14.80;99.90;;;;;;5047453;28;20025;-87
2022/08/02 05:20:26;;;;;;;8.07;2.63;;;14.80;99.90;;;;;;5049454;28;20120;-86
2022/08/02 05:22:51;;;;;;;5.72;2.17;;;14.90;99.90;;;;;;5052838;28;20424;-88
2022/08/02 05:25:17;;;;;;;7.53;2.22;;;15.00;99.90;;;;;;5053129;28;20029;-87
2022/08/02 05:27:42;;;;;;;8.95;3.38;;;15.10;99.90;;;;;;5052562;28;20041;-87
2022/08/02 05:30:09;;;;;;;6.85;2.72;;;15.20;99.90;;;;;;5050982;28;20028;-87
2022/08/02 05:32:45;;;;;;;8.75;2.55;;;15.20;99.90;;;;;;5050216;28;20079;-87
2022/08/02 05:35:10;;;;;;;8.77;2.10;;;15.50;99.90;;;;;;5051939;28;20024;-88
2022/08/02 05:37:36;;;;;;;6.03;2.22;;;15.70;99.90;;;;;;5051860;28;20032;-88
2022/08/02 05:40:02;;;;;;;11.05;3.00;;;16.00;99.90;;;;;;5052275;28;20033;-87
2022/08/02 05:42:31;;;;;;;4.35;2.08;;;16.10;99.90;;;;;;5052251;28;20111;-87
2022/08/02 05:44:57;;;;;;;6.72;2.90;;;16.10;99.90;;;;;;5048429;28;20068;-87
2022/08/02 05:47:23;;;;;;;10.38;2.50;;;16.10;99.90;;;;;;5052602;28;20056;-87
2022/08/02 05:49:48;;;;;;;6.68;2.53;;;16.30;99.90;;;;;;5048939;28;20026;-88
2022/08/02 05:52:17;;;;;;;6.45;2.65;;;16.40;99.90;;;;;;5052614;28;20373;-89
2022/08/02 05:55:05;;;;;;;9.00;3.65;;;16.50;99.90;;;;;;5042363;28;20029;-89
2022/08/02 05:58:04;;;;;;;5.95;3.00;;;16.80;99.90;;;;;;5045543;28;20029;-88
2022/08/02 06:00:31;;;;;;;14.27;4.35;;;17.00;99.90;;;;;;5015802;28;20120;-89
2022/08/02 06:03:17;;;;;;;5.75;2.40;;;17.20;99.90;;;;;;5052134;28;20037;-88
2022/08/02 06:05:55;;;;;;;9.10;3.00;;;17.40;99.90;;;;;;5052814;28;20032;-87
2022/08/02 06:08:28;;;;;;;7.45;2.50;;;17.50;99.90;;;;;;5034927;28;20500;-87
2022/08/02 06:11:02;;;;;;;6.75;3.00;;;17.60;99.90;;;;;;5038070;28;20112;-88
2022/08/02 06:13:28;;;;;;;5.65;2.45;;;17.80;99.90;;;;;;5053289;28;20021;-87
2022/08/02 06:15:58;;;;;;;8.07;2.85;;;17.90;99.90;;;;;;5048353;28;20111;-87
2022/08/02 06:18:26;;;;;;;5.75;3.05;;;18.00;99.90;;;;;;5044578;28;20029;-88
2022/08/02 06:20:54;;;;;;;7.85;3.70;;;18.10;99.90;;;;;;5045057;28;20049;-88
2022/08/02 06:23:22;;;;;;;9.38;3.20;;;18.20;99.90;;;;;;5047304;28;20044;-89
2022/08/02 06:25:50;;;;;;;7.38;3.45;;;18.30;99.90;;;;;;5048056;28;20025;-88
2022/08/02 06:28:17;;;;;;;6.40;2.95;;;18.40;99.90;;;;;;5048484;28;20021;-87
2022/08/02 06:30:46;;;;;;;8.55;4.35;;;18.40;99.90;;;;;;5038091;28;20031;-88
2022/08/02 06:33:14;;;;;;;7.80;4.35;;;18.50;99.90;;;;;;5045234;28;20167;-87
2022/08/02 06:36:04;;;;;;;7.75;3.40;;;18.50;99.90;;;;;;5045567;28;20535;-88
2022/08/02 06:38:40;;;;;;;7.35;3.70;;;18.60;99.90;;;;;;5051854;28;20028;-86
2022/08/02 06:41:08;;;;;;;11.25;4.10;;;18.60;99.90;;;;;;5052473;28;20086;-87
2022/08/02 06:43:43;;;;;;;9.13;3.90;;;18.70;99.90;;;;;;5038755;28;20035;-87
2022/08/02 06:46:09;;;;;;;9.05;4.35;;;18.80;99.90;;;;;;5054274;28;20051;-87
2022/08/02 06:48:35;;;;;;;11.70;5.00;;;18.90;99.90;;;;;;5046973;28;20024;-87
2022/08/02 06:51:04;;;;;;;9.98;4.55;;;19.00;99.90;;;;;;5052019;28;20029;-89
2022/08/02 06:53:31;;;;;;;9.40;4.78;;;19.10;99.90;;;;;;5049080;28;20048;-87
2022/08/02 06:55:57;;;;;;;12.02;5.15;;;19.20;99.90;;;;;;5051885;28;20028;-88
2022/08/02 06:58:22;;;;;;;8.77;5.75;;;19.30;99.90;;;;;;5054671;28;20035;-87
2022/08/02 07:00:48;;;;;;;13.55;4.72;;;19.50;99.90;;;;;;5054302;28;20064;-88
2022/08/02 07:03:14;;;;;;;10.88;5.00;;;19.70;99.90;;;;;;5052812;28;20036;-87
2022/08/02 07:05:40;;;;;;;7.18;5.43;;;19.90;99.90;;;;;;5041624;28;20060;-87
2022/08/02 07:08:06;;;;;;;9.60;5.75;;;20.00;99.90;;;;;;5054805;28;20127;-87
2022/08/02 07:10:32;;;;;;;6.95;4.97;;;20.10;99.90;;;;;;5053673;28;20392;-87
2022/08/02 07:12:57;;;;;;;7.47;5.43;;;20.20;99.90;;;;;;5036984;28;20040;-88
2022/08/02 07:15:23;;;;;;;10.88;7.05;;;20.30;99.90;;;;;;5038909;28;20045;-88
2022/08/02 07:17:48;;;;;;;11.18;6.00;;;20.50;99.90;;;;;;5033910;28;20022;-88
2022/08/02 07:20:15;;;;;;;12.73;5.78;;;20.50;99.90;;;;;;5046788;28;20507;-87
2022/08/02 07:22:40;;;;;;;10.10;7.45;;;20.70;99.90;;;;;;5044528;28;20112;-88
2022/08/02 07:25:07;;;;;;;9.32;5.90;;;20.80;99.90;;;;;;5052643;28;20519;-87
2022/08/02 07:27:32;;;;;;;12.60;7.00;;;20.90;99.90;;;;;;5050574;28;20112;-87
2022/08/02 07:29:58;;;;;;;10.55;6.57;;;21.10;99.90;;;;;;5039768;28;20071;-87
2022/08/02 07:32:27;;;;;;;11.18;7.00;;;21.20;99.90;;;;;;5050565;28;20025;-88
2022/08/02 07:34:53;;;;;;;6.63;5.13;;;21.40;99.90;;;;;;5053161;28;20029;-87
2022/08/02 07:37:32;;;;;;;8.55;5.68;;;21.50;99.90;;;;;;5052236;28;20031;-88
2022/08/02 07:39:58;;;;;;;7.60;5.70;;;21.60;99.90;;;;;;5038660;28;20060;-88
2022/08/02 07:42:23;;;;;;;10.02;6.00;;;21.60;99.90;;;;;;5048238;28;20049;-87
2022/08/02 07:44:49;;;;;;;8.02;5.85;;;21.60;99.90;;;;;;5053396;28;20040;-87
2022/08/02 07:47:15;;;;;;;9.18;5.85;;;21.70;99.90;;;;;;5047591;28;20045;-87
2022/08/02 07:49:41;;;;;;;6.82;5.05;;;21.80;99.90;;;;;;5057535;28;20028;-91
2022/08/02 07:52:06;;;;;;;7.82;5.32;;;21.90;99.90;;;;;;5048693;28;20028;-89
2022/08/02 07:54:32;;;;;;;6.75;5.45;;;22.00;99.90;;;;;;5052421;28;20029;-87
2022/08/02 07:56:57;;;;;;;7.65;4.72;;;22.10;99.90;;;;;;5054013;28;20385;-88
2022/08/02 07:59:31;;;;;;;7.00;4.72;;;22.10;99.90;;;;;;5054577;28;20385;-88
2022/08/02 08:01:56;;;;;;;7.32;4.97;;;22.20;99.90;;;;;;5053724;28;20048;-89
2022/08/02 08:04:22;;;;;;;8.25;5.10;;;22.30;99.90;;;;;;5052184;28;20029;-88
2022/08/02 08:06:50;;;;;;;8.50;4.97;;;22.40;99.90;;;;;;5052720;28;20078;-88
2022/08/02 08:09:16;;;;;;;6.75;4.68;;;22.50;99.90;;;;;;5053727;28;20032;-89
2022/08/02 08:11:42;;;;;;;6.15;5.05;;;22.60;99.90;;;;;;5053515;28;20029;-89
2022/08/02 08:14:07;;;;;;;6.60;4.47;;;22.70;99.90;;;;;;5051693;28;20032;-89
2022/08/02 08:16:33;;;;;;;7.00;4.30;;;22.80;99.70;;;;;;5055009;28;20025;-90
2022/08/02 08:18:59;;;;;;;6.82;3.67;;;23.00;99.30;;;;;;5057338;28;20376;-90
2022/08/02 08:21:24;;;;;;;8.70;4.15;;;23.00;99.00;;;;;;5056916;28;20087;-89
2022/08/02 08:23:50;;;;;;;6.30;3.35;;;23.10;98.90;;;;;;5056182;28;20037;-89
2022/08/02 08:26:15;;;;;;;6.28;3.17;;;23.20;98.80;;;;;;5054826;28;20044;-89
2022/08/02 08:28:41;;;;;;;5.50;3.20;;;23.30;98.40;;;;;;5037327;28;20018;-89
2022/08/02 08:31:07;;;;;;;5.43;2.95;;;23.40;97.90;;;;;;5042751;28;20463;-88
2022/08/02 08:33:32;;;;;;;7.95;3.35;;;23.50;97.70;;;;;;5048808;28;20088;-88
2022/08/02 08:35:58;;;;;;;4.00;2.70;;;23.60;97.50;;;;;;5049833;28;20467;-88
2022/08/02 08:38:24;;;;;;;4.57;2.33;;;23.70;97.50;;;;;;5051599;28;20035;-88
2022/08/02 08:40:49;;;;;;;3.22;2.58;;;23.60;97.10;;;;;;5047885;28;20037;-87
2022/08/02 08:43:15;;;;;;;4.03;2.00;;;23.70;97.10;;;;;;5055924;28;20021;-90
2022/08/02 08:45:46;;;;;;;2.88;1.30;;;23.80;96.80;;;;;;5047258;28;20025;-87
2022/08/02 08:48:14;;;;;;;3.72;1.20;;;23.80;95.90;;;;;;5047038;28;20029;-89
2022/08/02 08:50:55;;;;;;;2.22;0.82;;;23.80;95.30;;;;;;5046261;28;20031;-89
2022/08/02 08:53:23;;;;;;;4.13;1.15;;;23.80;94.80;;;;;;5042606;28;20024;-90
2022/08/02 08:55:52;;;;;;;3.33;1.00;;;23.90;94.80;;;;;;5037544;28;20117;-89
2022/08/02 08:58:18;;;;;;;4.38;0.90;;;24.00;94.30;;;;;;5036787;28;20465;-91
2022/08/02 09:00:45;;;;;;;4.22;1.27;;;24.10;93.90;;;;;;5037257;28;20044;-90
2022/08/02 09:03:10;;;;;;;2.47;1.00;;;24.20;93.60;;;;;;5045648;28;20048;-90
2022/08/02 09:05:37;;;;;;;2.22;0.85;;;24.30;93.40;;;;;;5036316;28;20037;-89
2022/08/02 09:08:03;;;;;;;4.40;1.17;;;24.30;93.20;;;;;;5056060;28;20029;-87
2022/08/02 09:10:33;;;;;;;2.20;1.42;;;24.30;93.00;;;;;;5056975;28;20125;-90
2022/08/02 09:13:05;;;;;;;4.25;0.80;;;24.20;92.70;;;;;;5052915;28;20053;-90
2022/08/02 09:15:31;;;;;;;2.67;0.82;;;24.10;92.60;;;;;;5053516;28;20025;-90
2022/08/02 09:17:56;;;;;;;2.13;0.70;;;24.10;93.00;;;;;;5036559;28;20033;-90
2022/08/02 09:20:22;;;;;;;1.65;0.50;;;24.20;92.30;;;;;;5036463;28;20029;-89
2022/08/02 09:23:05;;;;;;;2.33;0.55;;;24.20;91.90;;;;;;5052113;28;20413;-88
2022/08/02 09:25:33;;;;;;;2.15;0.50;;;24.30;91.60;;;;;;5050770;28;20036;-90
2022/08/02 09:27:59;;;;;;;1.38;0.50;;;24.40;91.20;;;;;;5041929;28;20108;-93
2022/08/02 09:30:27;;;;;;;4.40;0.52;;;24.50;90.60;;;;;;5036669;28;20064;-91
2022/08/02 09:32:53;;;;;;;4.00;0.70;;;24.50;90.20;;;;;;5045433;28;20021;-91
2022/08/02 09:35:35;;;;;;;1.30;0.50;;;24.70;90.00;;;;;;5056374;28;20032;-88
2022/08/02 09:38:11;;;;;;;3.15;0.40;;;24.80;89.70;;;;;;5055040;28;20028;-90
2022/08/02 09:40:38;;;;;;;1.65;0.40;;;24.80;89.60;;;;;;5035937;28;20055;-91
2022/08/02 09:43:04;;;;;;;2.78;0.40;;;24.90;88.70;;;;;;5054295;28;20044;-88
2022/08/02 09:45:35;;;;;;;2.00;0.60;;;24.90;88.50;;;;;;5050735;28;20025;-89
2022/08/02 09:48:01;;;;;;;1.38;0.60;;;24.90;88.20;;;;;;5055650;28;20045;-89
2022/08/02 09:50:28;;;;;;;0.88;0.30;;;25.00;87.80;;;;;;5054974;28;20092;-89
2022/08/02 09:52:57;;;;;;;1.98;0.40;;;25.00;86.80;;;;;;5051008;28;20616;-84
2022/08/02 09:55:24;;;;;;;2.15;0.40;;;25.20;86.00;;;;;;5052688;28;20029;-89
2022/08/02 09:57:50;;;;;;;1.38;0.40;;;25.20;85.60;;;;;;5051640;28;20106;-89
2022/08/02 10:00:16;;;;;;;2.22;0.40;;;25.30;84.80;;;;;;5053070;28;20021;-90
2022/08/02 10:03:11;;;;;;;3.17;0.80;;;25.30;84.30;;;;;;5045863;28;20033;-91
2022/08/02 10:05:57;;;;;;;1.13;0.40;;;25.30;84.80;;;;;;5033872;28;20037;-89
2022/08/02 10:08:24;;;;;;;0.80;0.40;;;25.30;84.10;;;;;;5051225;28;20397;-89
2022/08/02 10:10:59;;;;;;;2.10;0.30;;;25.30;83.10;;;;;;5040838;28;20063;-89
2022/08/02 10:13:27;;;;;;;2.47;0.30;;;25.30;82.00;;;;;;5048136;28;20034;-91
2022/08/02 10:15:54;;;;;;;1.50;0.43;;;25.50;82.10;;;;;;5041061;28;20359;-87
2022/08/02 10:18:20;;;;;;;2.05;0.43;;;25.70;80.60;;;;;;5043184;28;20025;-89
2022/08/02 10:20:47;;;;;;;0.82;0.30;;;25.90;79.50;;;;;;5047402;28;20039;-90
2022/08/02 10:23:14;;;;;;;1.88;0.30;;;26.00;78.20;;;;;;5033701;28;20030;-88
2022/08/02 10:25:41;;;;;;;0.60;0.35;;;26.20;77.50;;;;;;5049724;28;20036;-92
2022/08/02 10:28:07;;;;;;;1.90;0.40;;;26.40;76.70;;;;;;5052558;28;20056;-87
2022/08/02 10:30:39;;;;;;;2.33;0.40;;;26.50;75.80;;;;;;5052975;28;20025;-91
2022/08/02 10:33:09;;;;;;;1.55;0.30;;;26.60;74.70;;;;;;5043559;28;20033;-89
2022/08/02 10:35:38;;;;;;;1.90;0.40;;;26.60;73.70;;;;;;5043052;28;20049;-90
2022/08/02 10:38:10;;;;;;;1.88;0.40;;;26.60;72.80;;;;;;5048282;28;20033;-91
2022/08/02 10:40:50;;;;;;;0.77;0.30;;;26.70;72.10;;;;;;5051723;28;20500;-91
2022/08/02 10:43:31;;;;;;;1.52;0.30;;;26.60;71.50;;;;;;5052374;28;20082;-88
2022/08/02 10:46:22;;;;;;;2.20;0.35;;;26.70;71.60;;;;;;5051953;28;20025;-89
2022/08/02 10:49:07;;;;;;;0.50;0.30;;;26.60;71.50;;;;;;5049018;28;20528;-89
2022/08/02 10:51:50;;;;;;;2.40;0.40;;;26.70;71.60;;;;;;5054307;28;20024;-93
2022/08/02 10:54:30;;;;;;;2.00;0.43;;;26.70;70.00;;;;;;5038472;28;20102;-91
2022/08/02 10:56:57;;;;;;;1.00;0.45;;;26.60;69.60;;;;;;5052245;28;20492;-89
2022/08/02 10:59:25;;;;;;;0.80;0.30;;;26.50;69.40;;;;;;5051788;28;20060;-90
2022/08/02 11:01:51;;;;;;;1.20;0.30;;;26.50;69.70;;;;;;5053474;28;20040;-92
2022/08/02 11:04:19;;;;;;;0.88;0.20;;;26.50;68.90;;;;;;5054621;28;20021;-92
2022/08/02 11:07:13;;;;;;;1.05;0.30;;;26.60;68.70;;;;;;5052870;28;20032;-90
2022/08/02 11:09:40;;;;;;;1.88;0.30;;;26.80;68.60;;;;;;5044199;28;20022;-90
2022/08/02 11:12:12;;;;;;;1.58;0.30;;;26.90;67.80;;;;;;5033319;28;20037;-89
2022/08/02 11:14:40;;;;;;;2.35;0.28;;;27.00;67.30;;;;;;5049573;28;20025;-91
2022/08/02 11:17:17;;;;;;;2.35;0.47;;;27.10;66.00;;;;;;5054164;28;20056;-90
2022/08/02 11:20:11;;;;;;;1.10;0.22;;;27.00;65.50;;;;;;5054361;28;20469;-90
2022/08/02 11:22:41;;;;;;;0.50;0.28;;;26.80;65.10;;;;;;5048722;28;20140;-90
2022/08/02 11:25:22;;;;;;;2.85;0.30;;;26.80;65.10;;;;;;5052512;28;20017;-89
2022/08/02 11:27:48;;;;;;;0.70;0.30;;;26.80;64.70;;;;;;5062079;28;20400;-91
2022/08/02 11:30:14;;;;;;;1.80;0.20;;;26.90;64.90;;;;;;5056865;28;20025;-89
2022/08/02 11:32:40;;;;;;;0.73;0.20;;;27.10;64.60;;;;;;5054427;28;20025;-90
2022/08/02 11:35:06;;;;;;;2.38;0.20;;;27.30;64.40;;;;;;5053331;28;20083;-90
2022/08/02 11:37:42;;;;;;;1.05;0.40;;;27.50;64.40;;;;;;5050557;28;20036;-88
2022/08/02 11:40:16;;;;;;;0.77;0.30;;;27.70;63.60;;;;;;5037298;28;20108;-89
2022/08/02 11:42:44;;;;;;;2.35;0.40;;;27.80;63.80;;;;;;5051949;28;20040;-86
2022/08/02 11:45:12;;;;;;;2.35;0.40;;;28.00;63.20;;;;;;5047370;28;20025;-87
2022/08/02 11:47:46;;;;;;;1.13;0.30;;;28.10;62.50;;;;;;5037595;28;20524;-86
2022/08/02 11:50:11;;;;;;;1.02;0.30;;;28.00;62.00;;;;;;5050741;28;20033;-89
2022/08/02 11:52:37;;;;;;;5.88;0.30;;;28.00;61.70;;;;;;5041864;28;20025;-87
2022/08/02 11:55:08;;;;;;;1.25;0.30;;;28.10;61.30;;;;;;5050211;28;20421;-87
2022/08/02 11:57:34;;;;;;;2.67;0.40;;;28.00;60.70;;;;;;5055917;28;20025;-89
2022/08/02 12:00:00;;;;;;;0.77;0.30;;;28.00;60.50;;;;;;5055538;28;20028;-89
2022/08/02 12:02:31;;;;;;;1.33;0.20;;;28.10;60.30;;;;;;5046980;28;20044;-88
2022/08/02 12:05:02;;;;;;;0.90;0.20;;;28.30;59.80;;;;;;5053857;28;20030;-90
2022/08/02 12:07:32;;;;;;;0.57;0.20;;;28.50;59.40;;;;;;5052365;28;20495;-89
2022/08/02 12:10:00;;;;;;;0.77;0.20;;;28.60;58.70;;;;;;5055844;28;20053;-90
2022/08/02 12:12:25;;;;;;;1.27;0.20;;;28.80;58.30;;;;;;5056748;28;20029;-88
2022/08/02 12:14:51;;;;;;;1.65;0.20;;;28.70;57.60;;;;;;5056257;28;20034;-90
2022/08/02 12:20:12;;;;;;;0.82;0.38;;;28.60;57.70;;;;;;5055626;28;20543;-89
2022/08/02 12:22:38;;;;;;;0.93;0.20;;;28.50;57.50;;;;;;5056020;28;20033;-88
2022/08/02 12:25:19;;;;;;;3.13;0.30;;;28.40;57.60;;;;;;5055685;28;20032;-88
2022/08/02 12:27:45;;;;;;;0.40;0.17;;;28.40;57.60;;;;;;5045445;28;20091;-88
2022/08/02 12:30:16;;;;;;;2.35;0.20;;;28.50;57.10;;;;;;5048310;28;20472;-92
2022/08/02 12:32:43;;;;;;;0.80;0.20;;;28.60;56.60;;;;;;5049834;28;20507;-87
2022/08/02 12:35:10;;;;;;;1.02;0.30;;;28.50;57.10;;;;;;5048327;28;20495;-87
2022/08/02 12:37:41;;;;;;;1.10;0.22;;;28.50;56.90;;;;;;5055885;28;20028;-87
2022/08/02 12:40:30;;;;;;;2.40;0.30;;;28.60;56.30;;;;;;5050045;28;20583;-88
2022/08/02 12:42:58;;;;;;;1.40;0.30;;;28.60;56.20;;;;;;5055267;28;20690;-87
2022/08/02 12:45:25;;;;;;;2.15;0.17;;;28.60;56.00;;;;;;5057722;28;20032;-88
2022/08/02 12:47:53;;;;;;;1.08;0.20;;;28.70;55.80;;;;;;5056323;28;20053;-88
2022/08/02 12:50:33;;;;;;;1.52;0.28;;;28.80;54.50;;;;;;5054464;28;20029;-88
2022/08/02 12:53:17;;;;;;;2.15;0.20;;;28.80;54.70;;;;;;5056825;28;20496;-88
2022/08/02 12:55:50;;;;;;;0.98;0.30;;;29.00;54.80;;;;;;5055997;28;20032;-88
2022/08/02 12:58:15;;;;;;;1.92;0.28;;;29.10;54.00;;;;;;5057426;28;20035;-89
2022/08/02 13:00:42;;;;;;;0.85;0.20;;;29.20;53.50;;;;;;5048912;28;20425;-88
2022/08/02 13:03:08;;;;;;;2.30;0.20;;;29.30;53.10;;;;;;5051986;28;20028;-89